Time;durP1;ratioP1;P1;durP2;ratioP2;P2;SDS_P1;SDS_P2;PMS_P1;PMS_P2;Temp;Humidity;BMP_temperature;BMP_pressure;BME280_temperature;BME280_humidity;BME280_pressure;Samples;Min_cycle;Max_cycle;Signal;HPM_P1;HPM_P2
2023/08/16 00:01:46;;;;;;;17.40;10.35;;;;;;;-140.66;100.00;55571.53;5136187;27;20130;-71
2023/08/16 00:05:32;;;;;;;12.13;8.73;;;;;;;-140.66;100.00;55571.53;5136137;27;20113;-72
2023/08/16 00:09:17;;;;;;;12.43;9.23;;;;;;;-140.66;100.00;55571.53;5137047;27;20035;-72
2023/08/16 00:13:01;;;;;;;14.93;9.05;;;;;;;-140.66;100.00;55571.53;5136091;27;20045;-72
2023/08/16 00:16:45;;;;;;;13.60;9.43;;;;;;;-140.66;100.00;55571.53;5135811;27;20106;-71
2023/08/16 00:20:30;;;;;;;10.88;9.18;;;;;;;-140.66;100.00;55571.53;5134801;27;20471;-73
2023/08/16 00:24:14;;;;;;;12.55;8.93;;;;;;;-140.66;100.00;55571.53;5148601;27;20073;-72
2023/08/16 00:27:58;;;;;;;15.35;9.68;;;;;;;-140.66;100.00;55571.53;5154888;27;20057;-73
2023/08/16 00:31:42;;;;;;;12.18;8.90;;;;;;;-140.66;100.00;55571.53;5153501;27;20030;-72
2023/08/16 00:35:26;;;;;;;14.77;9.35;;;;;;;-140.66;100.00;55571.53;5135658;27;20070;-72
2023/08/16 00:39:11;;;;;;;12.00;8.98;;;;;;;-140.66;100.00;55571.53;5135399;27;20444;-73
2023/08/16 00:42:55;;;;;;;15.80;9.63;;;;;;;-140.66;100.00;55571.53;5136094;27;20031;-72
2023/08/16 00:46:40;;;;;;;17.38;9.98;;;;;;;-140.66;100.00;55571.53;5135021;27;20349;-73
2023/08/16 00:50:24;;;;;;;19.98;10.38;;;;;;;-140.66;100.00;55571.53;5135067;27;20046;-73
2023/08/16 00:54:10;;;;;;;13.75;9.60;;;;;;;-140.66;100.00;55571.53;5135426;27;20063;-72
2023/08/16 00:57:55;;;;;;;10.32;8.73;;;;;;;-140.66;100.00;55571.53;5135115;27;20027;-72
2023/08/16 01:01:40;;;;;;;12.38;8.90;;;;;;;-140.66;100.00;55571.53;5135300;27;20110;-72
2023/08/16 01:05:25;;;;;;;13.35;9.00;;;;;;;-140.66;100.00;55571.53;5134494;27;20057;-73
2023/08/16 01:09:09;;;;;;;12.02;8.85;;;;;;;-140.66;100.00;55571.53;5135277;27;20452;-73
2023/08/16 01:13:05;;;;;;;11.07;9.07;;;;;;;-140.66;100.00;55571.53;5135364;27;20034;-72
2023/08/16 01:16:51;;;;;;;14.07;9.15;;;;;;;-140.66;100.00;55571.53;5135252;27;20429;-72
2023/08/16 01:20:36;;;;;;;14.45;9.30;;;;;;;-140.66;100.00;55571.53;5134285;27;20019;-72
2023/08/16 01:24:23;;;;;;;12.35;9.23;;;;;;;-140.66;100.00;55571.53;5134889;27;20345;-71
2023/08/16 01:28:08;;;;;;;16.13;10.30;;;;;;;-140.66;100.00;55571.53;5135083;27;20027;-72
2023/08/16 01:32:03;;;;;;;13.63;10.18;;;;;;;-140.66;100.00;55571.53;5134991;27;20041;-72
2023/08/16 01:35:47;;;;;;;11.70;9.70;;;;;;;-140.66;100.00;55571.53;5135011;27;20092;-71
2023/08/16 01:39:31;;;;;;;13.57;10.25;;;;;;;-140.66;100.00;55571.53;5134721;27;20472;-72
2023/08/16 01:43:16;;;;;;;13.77;9.38;;;;;;;-140.66;100.00;55571.53;5135420;27;20069;-73
2023/08/16 01:47:02;;;;;;;14.30;9.48;;;;;;;-140.66;100.00;55571.53;5134438;28;20027;-72
2023/08/16 01:50:47;;;;;;;12.27;9.43;;;;;;;-140.66;100.00;55571.53;5134863;28;20054;-72
2023/08/16 01:54:32;;;;;;;14.93;9.63;;;;;;;-140.66;100.00;55571.53;5134295;28;20042;-72
2023/08/16 01:58:16;;;;;;;11.13;9.05;;;;;;;-140.66;100.00;55571.53;5134001;28;20023;-72
2023/08/16 02:02:00;;;;;;;11.15;9.48;;;;;;;-140.66;100.00;55571.53;5135172;28;20063;-72
2023/08/16 02:05:45;;;;;;;13.10;9.60;;;;;;;-140.66;100.00;55571.53;5135243;28;20444;-73
2023/08/16 02:09:29;;;;;;;12.38;9.55;;;;;;;-140.66;100.00;55571.53;5134833;28;20031;-72
2023/08/16 02:13:13;;;;;;;15.52;9.60;;;;;;;-140.66;100.00;55571.53;5135358;28;20027;-72
2023/08/16 02:16:58;;;;;;;14.77;9.25;;;;;;;-140.66;100.00;55571.53;5134642;28;20113;-72
2023/08/16 02:20:42;;;;;;;14.43;10.13;;;;;;;-140.66;100.00;55571.53;5135118;28;20024;-72
2023/08/16 02:24:26;;;;;;;11.50;9.45;;;;;;;-140.66;100.00;55571.53;5135143;28;20038;-72
2023/08/16 02:28:11;;;;;;;12.50;9.80;;;;;;;-140.66;100.00;55571.53;5134104;28;20041;-72
2023/08/16 02:32:05;;;;;;;15.00;10.55;;;;;;;-140.66;100.00;55571.53;5138110;28;20034;-72
2023/08/16 02:35:49;;;;;;;13.05;10.13;;;;;;;-140.66;100.00;55571.53;5138783;28;20049;-72
2023/08/16 02:39:33;;;;;;;11.77;10.13;;;;;;;-140.66;100.00;55571.53;5134100;28;20033;-72
2023/08/16 02:43:17;;;;;;;12.55;9.98;;;;;;;-140.66;100.00;55571.53;5134763;27;20106;-73
2023/08/16 02:47:02;;;;;;;15.52;9.98;;;;;;;-140.66;100.00;55571.53;5137511;27;20102;-72
2023/08/16 02:50:47;;;;;;;13.55;9.88;;;;;;;-140.66;100.00;55571.53;5138720;27;20034;-72
2023/08/16 02:54:32;;;;;;;15.35;9.88;;;;;;;-140.66;100.00;55571.53;5137755;27;20062;-72
2023/08/16 02:58:16;;;;;;;13.02;9.30;;;;;;;-140.66;100.00;55571.53;5137034;27;20059;-72
2023/08/16 03:02:00;;;;;;;11.85;9.35;;;;;;;-140.66;100.00;55571.53;5138107;27;20022;-71
2023/08/16 03:05:44;;;;;;;12.13;9.45;;;;;;;-140.66;100.00;55571.53;5136936;27;20102;-72
2023/08/16 03:09:29;;;;;;;14.90;10.30;;;;;;;-140.66;100.00;55571.53;5136949;27;20019;-73
2023/08/16 03:13:13;;;;;;;15.13;10.30;;;;;;;-140.66;100.00;55571.53;5138314;27;20019;-71
2023/08/16 03:16:57;;;;;;;11.90;9.80;;;;;;;-140.66;100.00;55571.53;5137554;27;20417;-72
2023/08/16 03:20:42;;;;;;;12.32;10.45;;;;;;;-140.66;100.00;55571.53;5137127;27;20026;-72
2023/08/16 03:24:26;;;;;;;16.67;10.43;;;;;;;-140.66;100.00;55571.53;5137376;27;20023;-72
2023/08/16 03:28:10;;;;;;;18.33;10.88;;;;;;;-140.66;100.00;55571.53;5136792;27;20050;-71
2023/08/16 03:31:55;;;;;;;13.98;10.93;;;;;;;-140.66;100.00;55571.53;5137589;27;20079;-72
2023/08/16 03:35:40;;;;;;;15.68;10.40;;;;;;;-140.66;100.00;55571.53;5136944;27;20444;-71
2023/08/16 03:39:24;;;;;;;16.42;10.13;;;;;;;-140.66;100.00;55571.53;5136975;27;20062;-72
2023/08/16 03:43:08;;;;;;;14.98;10.95;;;;;;;-140.66;100.00;55571.53;5137104;27;20027;-72
2023/08/16 03:46:53;;;;;;;14.52;10.43;;;;;;;-140.66;100.00;55571.53;5136663;27;20088;-72
2023/08/16 03:50:37;;;;;;;13.60;10.45;;;;;;;-140.66;100.00;55571.53;5137829;27;20046;-72
2023/08/16 03:54:21;;;;;;;13.25;10.25;;;;;;;-140.66;100.00;55571.53;5136523;27;20027;-73
2023/08/16 03:58:05;;;;;;;15.25;10.45;;;;;;;-140.66;100.00;55571.53;5137014;27;20115;-72
2023/08/16 04:01:50;;;;;;;12.75;10.20;;;;;;;-140.66;100.00;55571.53;5135326;27;20019;-72
2023/08/16 04:05:35;;;;;;;14.95;10.25;;;;;;;-140.66;100.00;55571.53;5134995;27;20425;-72
2023/08/16 04:09:19;;;;;;;14.55;11.10;;;;;;;-140.66;100.00;55571.53;5136406;27;20026;-71
2023/08/16 04:13:04;;;;;;;14.13;10.30;;;;;;;-140.66;100.00;55571.53;5136867;27;20066;-72
2023/08/16 04:16:48;;;;;;;14.38;10.35;;;;;;;-140.66;100.00;55571.53;5136593;27;20043;-72
2023/08/16 04:20:32;;;;;;;20.00;11.05;;;;;;;-140.66;100.00;55571.53;5136624;27;20027;-72
2023/08/16 04:24:17;;;;;;;16.33;10.80;;;;;;;-140.66;100.00;55571.53;5136361;27;20027;-72
2023/08/16 04:28:01;;;;;;;16.50;10.27;;;;;;;-140.66;100.00;55571.53;5136542;27;20046;-72
2023/08/16 04:31:45;;;;;;;17.85;10.52;;;;;;;-140.66;100.00;55571.53;5135976;27;20368;-72
2023/08/16 04:35:29;;;;;;;21.48;11.00;;;;;;;-140.66;100.00;55571.53;5135681;27;20114;-72
2023/08/16 04:39:14;;;;;;;14.10;11.07;;;;;;;-140.66;100.00;55571.53;5136378;27;20042;-72
2023/08/16 04:42:58;;;;;;;17.23;11.02;;;;;;;-140.66;100.00;55571.53;5135767;27;20448;-71
2023/08/16 04:46:42;;;;;;;17.60;10.52;;;;;;;-140.66;100.00;55571.53;5136212;27;20042;-72
2023/08/16 04:50:27;;;;;;;15.63;10.60;;;;;;;-140.66;100.00;55571.53;5136767;27;20067;-72
2023/08/16 04:54:11;;;;;;;18.13;9.85;;;;;;;-140.66;100.00;55571.53;5136629;27;20449;-73
2023/08/16 04:57:55;;;;;;;15.70;10.20;;;;;;;-140.66;100.00;55571.53;5135152;27;20031;-72
2023/08/16 05:01:39;;;;;;;25.02;10.68;;;;;;;-140.66;100.00;55571.53;5136394;27;20081;-71
2023/08/16 05:05:24;;;;;;;21.58;10.63;;;;;;;-140.66;100.00;55571.53;5136179;27;20349;-71
2023/08/16 05:09:08;;;;;;;18.58;10.30;;;;;;;-140.66;100.00;55571.53;5135369;27;20456;-73
2023/08/16 05:12:52;;;;;;;16.23;9.25;;;;;;;-140.66;100.00;55571.53;5136294;27;20095;-73
2023/08/16 05:16:36;;;;;;;27.88;10.52;;;;;;;-140.66;100.00;55571.53;5136113;27;20034;-72
2023/08/16 05:20:20;;;;;;;23.13;10.02;;;;;;;-140.66;100.00;55571.53;5135735;27;20369;-72
2023/08/16 05:24:05;;;;;;;23.05;10.43;;;;;;;-140.66;100.00;55571.53;5147759;27;20471;-74
2023/08/16 05:27:49;;;;;;;14.00;9.90;;;;;;;-140.66;100.00;55571.53;5140236;27;20086;-74
2023/08/16 05:31:33;;;;;;;22.65;10.40;;;;;;;-140.66;100.00;55571.53;5134229;27;20034;-71
2023/08/16 05:35:17;;;;;;;18.52;10.55;;;;;;;-140.66;100.00;55571.53;5134833;27;20027;-73
2023/08/16 05:39:03;;;;;;;14.88;10.15;;;;;;;-140.66;100.00;55571.53;5135164;27;20027;-73
2023/08/16 05:42:47;;;;;;;20.33;11.88;;;;;;;-140.66;100.00;55571.53;5144424;27;20050;-71
2023/08/16 05:46:31;;;;;;;20.73;12.68;;;;;;;-140.66;100.00;55571.53;5136071;27;20029;-72
2023/08/16 05:50:15;;;;;;;33.63;14.57;;;;;;;-140.66;100.00;55571.53;5134755;28;20046;-72
2023/08/16 05:54:01;;;;;;;39.55;16.13;;;;;;;-140.66;100.00;55571.53;5134849;28;20089;-73
2023/08/16 05:57:45;;;;;;;25.20;13.70;;;;;;;-140.66;100.00;55571.53;5134946;28;20074;-72
2023/08/16 06:01:30;;;;;;;23.58;14.40;;;;;;;-140.66;100.00;55571.53;5135086;28;20019;-73
2023/08/16 06:05:14;;;;;;;21.25;12.60;;;;;;;-140.66;100.00;55571.53;5133864;28;20365;-73
2023/08/16 06:08:58;;;;;;;23.30;12.93;;;;;;;-140.66;100.00;55571.53;5134963;28;20019;-73
2023/08/16 06:12:42;;;;;;;22.95;12.73;;;;;;;-140.66;100.00;55571.53;5135328;28;20027;-72
2023/08/16 06:16:27;;;;;;;24.58;11.77;;;;;;;-140.66;100.00;55571.53;5134445;28;20356;-72
2023/08/16 06:20:12;;;;;;;23.73;12.63;;;;;;;-140.66;100.00;55571.53;5138477;27;20034;-72
2023/08/16 06:23:57;;;;;;;18.10;12.27;;;;;;;-140.66;100.00;55571.53;5138543;27;20057;-72
2023/08/16 06:27:41;;;;;;;19.30;12.00;;;;;;;-140.66;100.00;55571.53;5139850;27;20015;-70
2023/08/16 06:31:26;;;;;;;19.27;12.88;;;;;;;-140.66;100.00;55571.53;5138176;27;20049;-72
2023/08/16 06:35:10;;;;;;;18.02;11.18;;;;;;;-140.66;100.00;55571.53;5138744;27;20160;-72
2023/08/16 06:38:54;;;;;;;15.05;11.50;;;;;;;-140.66;100.00;55571.53;5138025;27;20031;-71
2023/08/16 06:42:42;;;;;;;13.10;10.43;;;;;;;-140.66;100.00;55571.53;5137685;27;20027;-72
2023/08/16 06:46:26;;;;;;;15.50;12.05;;;;;;;-140.66;100.00;55571.53;5138168;27;20034;-72
2023/08/16 06:50:10;;;;;;;15.93;10.77;;;;;;;-140.66;100.00;55571.53;5137822;27;20122;-71
2023/08/16 06:53:55;;;;;;;15.43;10.63;;;;;;;-140.66;100.00;55571.53;5138162;27;20033;-72
2023/08/16 06:57:39;;;;;;;17.17;10.23;;;;;;;-140.66;100.00;55571.53;5137733;27;20038;-72
2023/08/16 07:01:23;;;;;;;13.82;9.93;;;;;;;-140.66;100.00;55571.53;5137496;27;20441;-71
2023/08/16 07:05:08;;;;;;;13.95;9.23;;;;;;;-140.66;100.00;55571.53;5138014;27;20055;-71
2023/08/16 07:08:52;;;;;;;13.60;9.13;;;;;;;-140.66;100.00;55571.53;5137014;27;20083;-72
2023/08/16 07:12:37;;;;;;;11.77;8.40;;;;;;;-140.66;100.00;55571.53;5136806;27;20118;-71
2023/08/16 07:16:21;;;;;;;14.20;8.93;;;;;;;-140.66;100.00;55571.53;5137432;27;20452;-71
2023/08/16 07:20:07;;;;;;;13.95;7.97;;;;;;;-140.66;100.00;55571.53;5137326;27;20033;-72
2023/08/16 07:23:52;;;;;;;12.65;7.47;;;;;;;-140.66;100.00;55571.53;5136838;27;20031;-71
2023/08/16 07:27:36;;;;;;;9.23;6.97;;;;;;;-140.66;100.00;55571.53;5137817;27;20101;-71
2023/08/16 07:31:20;;;;;;;12.63;6.85;;;;;;;-140.66;100.00;55571.53;5137948;27;20444;-71
2023/08/16 07:35:05;;;;;;;13.88;7.57;;;;;;;-140.66;100.00;55571.53;5136487;27;20038;-73
2023/08/16 07:38:49;;;;;;;10.27;6.72;;;;;;;-140.66;100.00;55571.53;5136273;27;20373;-71
2023/08/16 07:42:33;;;;;;;10.85;7.03;;;;;;;-140.66;100.00;55571.53;5136642;27;20410;-71
2023/08/16 07:46:18;;;;;;;12.30;6.93;;;;;;;-140.66;100.00;55571.53;5136870;27;20468;-71
2023/08/16 07:50:02;;;;;;;16.08;6.75;;;;;;;-140.66;100.00;55571.53;5136185;27;20066;-72
2023/08/16 07:53:46;;;;;;;12.63;7.18;;;;;;;-140.66;100.00;55571.53;5136900;27;20023;-73
2023/08/16 07:57:31;;;;;;;13.82;6.88;;;;;;;-140.66;100.00;55571.53;5151632;27;20027;-71
2023/08/16 08:01:15;;;;;;;11.55;6.43;;;;;;;-140.66;100.00;55571.53;5139903;27;20440;-72
2023/08/16 08:05:01;;;;;;;12.27;7.00;;;;;;;-140.66;100.00;55571.53;5135693;27;20330;-71
2023/08/16 08:08:45;;;;;;;14.27;6.82;;;;;;;-140.66;100.00;55571.53;5136274;27;20093;-71
2023/08/16 08:12:30;;;;;;;15.50;6.80;;;;;;;-140.66;100.00;55571.53;5136342;27;20035;-73
2023/08/16 08:16:14;;;;;;;11.88;6.35;;;;;;;-140.66;100.00;55571.53;5146370;27;20027;-72
2023/08/16 08:19:58;;;;;;;16.95;6.10;;;;;;;-140.66;100.00;55571.53;5135791;27;20045;-73
2023/08/16 08:23:43;;;;;;;13.20;6.10;;;;;;;-140.66;100.00;55571.53;5136417;27;20111;-72
2023/08/16 08:27:27;;;;;;;11.73;6.43;;;;;;;-140.66;100.00;55571.53;5136645;27;20106;-73
2023/08/16 08:31:11;;;;;;;11.32;6.72;;;;;;;-140.66;100.00;55571.53;5135071;27;20329;-74
2023/08/16 08:34:56;;;;;;;15.90;6.57;;;;;;;-140.66;100.00;55571.53;5135415;27;20114;-73
2023/08/16 08:38:41;;;;;;;11.05;5.75;;;;;;;-140.66;100.00;55571.53;5134882;27;20473;-72
2023/08/16 08:42:26;;;;;;;8.65;6.13;;;;;;;-140.66;100.00;55571.53;5134468;27;20114;-72
2023/08/16 08:46:12;;;;;;;16.88;6.90;;;;;;;-140.66;100.00;55571.53;5135407;27;20353;-72
2023/08/16 08:50:02;;;;;;;17.75;6.95;;;;;;;-140.66;100.00;55571.53;5135503;27;20050;-74
2023/08/16 08:53:46;;;;;;;11.88;6.75;;;;;;;-140.66;100.00;55571.53;5135020;27;20031;-72
2023/08/16 08:57:32;;;;;;;18.50;7.70;;;;;;;-140.66;100.00;55571.53;5135707;27;20449;-72
2023/08/16 09:01:20;;;;;;;17.00;7.93;;;;;;;-140.66;100.00;55571.53;5135286;27;20030;-73
2023/08/16 09:05:07;;;;;;;26.33;8.32;;;;;;;-140.66;100.00;55571.53;5135787;27;20035;-72
2023/08/16 09:08:51;;;;;;;13.80;7.40;;;;;;;-140.66;100.00;55571.53;5134722;27;20099;-73
2023/08/16 09:12:37;;;;;;;18.73;7.25;;;;;;;-140.66;100.00;55571.53;5134399;27;20027;-71
2023/08/16 09:16:21;;;;;;;19.27;6.95;;;;;;;-140.66;100.00;55571.53;5135024;27;20023;-71
2023/08/16 09:20:12;;;;;;;15.63;6.43;;;;;;;-140.66;100.00;55571.53;5134580;27;20049;-71
2023/08/16 09:23:57;;;;;;;14.48;6.57;;;;;;;-140.66;100.00;55571.53;5134760;27;20015;-71
2023/08/16 09:27:42;;;;;;;13.68;6.00;;;;;;;-140.66;100.00;55571.53;5134826;27;20015;-72
2023/08/16 09:31:29;;;;;;;15.93;6.30;;;;;;;-140.66;100.00;55571.53;5134201;27;20059;-71
2023/08/16 09:35:16;;;;;;;10.45;6.47;;;;;;;-140.66;100.00;55571.53;5135086;27;20031;-71
2023/08/16 09:39:01;;;;;;;14.80;6.82;;;;;;;-140.66;100.00;55571.53;5134559;27;20445;-71
2023/08/16 09:42:48;;;;;;;14.30;6.22;;;;;;;-140.66;100.00;55571.53;5134212;27;20023;-72
2023/08/16 09:46:33;;;;;;;15.52;5.63;;;;;;;-140.66;100.00;55571.53;5134178;27;20023;-71
2023/08/16 09:50:22;;;;;;;10.13;5.55;;;;;;;-140.66;100.00;55571.53;5134034;28;20104;-73
2023/08/16 09:54:12;;;;;;;18.40;6.32;;;;;;;-140.66;100.00;55571.53;5140951;27;20451;-71
2023/08/16 09:58:00;;;;;;;14.40;5.72;;;;;;;-140.66;100.00;55571.53;5141340;27;20371;-72
2023/08/16 10:01:45;;;;;;;11.73;6.22;;;;;;;-140.66;100.00;55571.53;5140790;27;20031;-71
2023/08/16 10:05:30;;;;;;;11.25;5.60;;;;;;;-140.66;100.00;55571.53;5141147;27;20034;-72
2023/08/16 10:09:15;;;;;;;9.43;5.70;;;;;;;-140.66;100.00;55571.53;5140619;27;20023;-72
2023/08/16 10:13:03;;;;;;;8.85;5.72;;;;;;;-140.66;100.00;55571.53;5141140;27;20023;-72
2023/08/16 10:16:53;;;;;;;10.07;5.45;;;;;;;-140.66;100.00;55571.53;5142207;27;20038;-72
2023/08/16 10:20:41;;;;;;;14.85;6.03;;;;;;;-140.66;100.00;55571.53;5140112;27;20019;-71
2023/08/16 10:24:29;;;;;;;14.20;6.57;;;;;;;-140.66;100.00;55571.53;5140331;27;20462;-71
2023/08/16 10:28:14;;;;;;;22.45;7.13;;;;;;;-140.66;100.00;55571.53;5141616;27;20038;-70
2023/08/16 10:32:02;;;;;;;12.63;6.35;;;;;;;-140.66;100.00;55571.53;5140199;27;20376;-71
2023/08/16 10:35:48;;;;;;;12.30;6.10;;;;;;;-140.66;100.00;55571.53;5141372;27;20038;-72
2023/08/16 10:39:36;;;;;;;13.27;6.72;;;;;;;-140.66;100.00;55571.53;5140887;27;20065;-72
2023/08/16 10:43:29;;;;;;;14.52;6.43;;;;;;;-140.66;100.00;55571.53;5140787;27;20082;-71
2023/08/16 10:47:29;;;;;;;16.85;6.07;;;;;;;-140.66;100.00;55571.53;5140920;27;20041;-72
2023/08/16 10:51:15;;;;;;;14.07;5.80;;;;;;;-140.66;100.00;55571.53;5140946;27;20341;-73
2023/08/16 10:55:01;;;;;;;9.35;5.68;;;;;;;-140.66;100.00;55571.53;5139354;27;20346;-73
2023/08/16 10:58:50;;;;;;;7.70;5.40;;;;;;;-140.66;100.00;55571.53;5140766;27;20448;-74
2023/08/16 11:02:42;;;;;;;13.30;5.85;;;;;;;-140.66;100.00;55571.53;5139753;27;20042;-72
2023/08/16 11:06:31;;;;;;;9.45;5.65;;;;;;;-140.66;100.00;55571.53;5137917;27;20106;-72
2023/08/16 11:10:16;;;;;;;11.60;6.35;;;;;;;-140.66;100.00;55571.53;5137407;27;20356;-73
2023/08/16 11:14:07;;;;;;;11.48;5.93;;;;;;;-140.66;100.00;55571.53;5138141;27;20082;-72
2023/08/16 11:17:55;;;;;;;11.13;5.78;;;;;;;-140.66;100.00;55571.53;5136400;27;20100;-72
2023/08/16 11:21:44;;;;;;;16.85;6.47;;;;;;;-140.66;100.00;55571.53;5136930;27;20088;-73
2023/08/16 11:25:35;;;;;;;11.48;6.78;;;;;;;-140.66;100.00;55571.53;5147462;27;20118;-73
2023/08/16 11:29:19;;;;;;;18.02;7.18;;;;;;;-140.66;100.00;55571.53;5135906;27;20023;-74
2023/08/16 11:33:05;;;;;;;13.68;7.70;;;;;;;-140.66;100.00;55571.53;5137941;27;20123;-74
2023/08/16 11:36:50;;;;;;;17.60;7.28;;;;;;;-140.66;100.00;55571.53;5131529;27;20063;-74
2023/08/16 11:40:38;;;;;;;11.90;6.57;;;;;;;-140.66;100.00;55571.53;5138098;27;20023;-73
2023/08/16 11:44:36;;;;;;;14.10;7.00;;;;;;;-140.66;100.00;55571.53;5137135;27;20501;-73
2023/08/16 11:48:21;;;;;;;17.27;6.93;;;;;;;-140.66;100.00;55571.53;5136681;27;20058;-72
2023/08/16 11:52:08;;;;;;;12.95;7.30;;;;;;;-140.66;100.00;55571.53;5137038;27;20410;-72
2023/08/16 11:56:04;;;;;;;14.80;6.95;;;;;;;-140.66;100.00;55571.53;5137650;27;20035;-72
2023/08/16 11:59:58;;;;;;;17.48;6.85;;;;;;;-140.66;100.00;55571.53;5136096;27;20467;-71
2023/08/16 12:03:43;;;;;;;14.65;7.95;;;;;;;-140.66;100.00;55571.53;5137646;27;20039;-72
2023/08/16 12:07:27;;;;;;;14.88;6.80;;;;;;;-140.66;100.00;55571.53;5135690;27;20456;-71
2023/08/16 12:11:34;;;;;;;12.65;7.30;;;;;;;-140.66;100.00;55571.53;5136241;27;20083;-71
2023/08/16 12:15:22;;;;;;;13.57;6.93;;;;;;;-140.66;100.00;55571.53;5135891;27;20038;-72
2023/08/16 12:19:06;;;;;;;17.33;7.32;;;;;;;-140.66;100.00;55571.53;5136737;27;20472;-72
2023/08/16 12:22:52;;;;;;;13.60;6.90;;;;;;;-140.66;100.00;55571.53;5135527;27;20024;-72
2023/08/16 12:26:36;;;;;;;19.27;7.25;;;;;;;-140.66;100.00;55571.53;5136118;27;20035;-72
2023/08/16 12:30:20;;;;;;;10.27;6.70;;;;;;;-140.66;100.00;55571.53;5136559;27;20031;-72
2023/08/16 12:34:06;;;;;;;35.15;8.50;;;;;;;-140.66;100.00;55571.53;5134525;27;20475;-74
2023/08/16 12:37:50;;;;;;;8.68;6.65;;;;;;;-140.66;100.00;55571.53;5135239;27;20024;-72
2023/08/16 12:41:35;;;;;;;13.15;7.50;;;;;;;-140.66;100.00;55571.53;5135609;27;20352;-71
2023/08/16 12:45:19;;;;;;;14.77;7.57;;;;;;;-140.66;100.00;55571.53;5136541;27;20453;-68
2023/08/16 12:49:03;;;;;;;16.30;7.07;;;;;;;-140.66;100.00;55571.53;5134890;27;20051;-68
2023/08/16 12:52:48;;;;;;;17.85;7.22;;;;;;;-140.66;100.00;55571.53;5135168;27;20027;-69
2023/08/16 12:56:32;;;;;;;10.82;6.35;;;;;;;-140.66;100.00;55571.53;5136708;27;20110;-72
2023/08/16 13:00:16;;;;;;;15.18;7.32;;;;;;;-140.66;100.00;55571.53;5135369;27;20036;-70
2023/08/16 13:04:00;;;;;;;11.73;6.22;;;;;;;-140.66;100.00;55571.53;5134509;27;20452;-71
2023/08/16 13:07:44;;;;;;;16.52;6.75;;;;;;;-140.66;100.00;55571.53;5134578;27;20373;-73
2023/08/16 13:11:29;;;;;;;16.88;6.43;;;;;;;-140.66;100.00;55571.53;5135912;27;20015;-70
2023/08/16 13:15:13;;;;;;;14.77;5.90;;;;;;;-140.66;100.00;55571.53;5134529;27;20023;-72
2023/08/16 13:18:57;;;;;;;15.93;6.88;;;;;;;-140.66;100.00;55571.53;5135233;27;20027;-71
2023/08/16 13:22:41;;;;;;;10.55;5.90;;;;;;;-140.66;100.00;55571.53;5134402;27;20079;-70
2023/08/16 13:26:26;;;;;;;18.52;6.22;;;;;;;-140.66;100.00;55571.53;5135405;27;20038;-71
2023/08/16 13:30:10;;;;;;;8.07;5.88;;;;;;;-140.66;100.00;55571.53;5133839;27;20111;-71
2023/08/16 13:33:55;;;;;;;13.15;6.00;;;;;;;-140.66;100.00;55571.53;5134852;27;20517;-71
2023/08/16 13:37:39;;;;;;;15.27;5.50;;;;;;;-140.66;100.00;55571.53;5134714;27;20031;-71
2023/08/16 13:41:23;;;;;;;7.93;5.50;;;;;;;-140.66;100.00;55571.53;5134082;27;20023;-71
2023/08/16 13:45:08;;;;;;;12.75;5.85;;;;;;;-140.66;100.00;55571.53;5134102;27;20460;-71
2023/08/16 13:48:52;;;;;;;9.20;5.82;;;;;;;-140.66;100.00;55571.53;5133948;27;20051;-71
2023/08/16 13:52:36;;;;;;;9.43;5.45;;;;;;;-140.66;100.00;55571.53;5138427;28;20027;-71
2023/08/16 13:56:21;;;;;;;11.10;6.25;;;;;;;-140.66;100.00;55571.53;5140961;28;20058;-70
2023/08/16 14:00:09;;;;;;;9.85;5.88;;;;;;;-140.66;100.00;55571.53;5137500;28;20368;-72
2023/08/16 14:03:53;;;;;;;6.85;5.25;;;;;;;-140.66;100.00;55571.53;5135445;28;20455;-71
2023/08/16 14:07:37;;;;;;;8.82;5.38;;;;;;;-140.66;100.00;55571.53;5134234;28;20023;-69
2023/08/16 14:11:22;;;;;;;6.82;5.07;;;;;;;-140.66;100.00;55571.53;5141470;28;20102;-71
2023/08/16 14:15:06;;;;;;;8.38;4.95;;;;;;;-140.66;100.00;55571.53;5142379;27;20019;-70
2023/08/16 14:18:50;;;;;;;13.32;5.53;;;;;;;-140.66;100.00;55571.53;5139072;28;20027;-69
2023/08/16 14:22:35;;;;;;;11.00;4.53;;;;;;;-140.66;100.00;55571.53;5139325;28;20034;-72
2023/08/16 14:26:20;;;;;;;13.60;4.25;;;;;;;-140.66;100.00;55571.53;5140033;28;20023;-69
2023/08/16 14:30:04;;;;;;;6.00;3.80;;;;;;;-140.66;100.00;55571.53;5140675;28;20019;-70
2023/08/16 14:33:49;;;;;;;7.82;4.28;;;;;;;-140.66;100.00;55571.53;5134885;28;20024;-71
2023/08/16 14:37:34;;;;;;;6.55;4.07;;;;;;;-140.66;100.00;55571.53;5134223;28;20027;-71
2023/08/16 14:41:18;;;;;;;10.65;4.68;;;;;;;-140.66;100.00;55571.53;5137288;27;20094;-70
2023/08/16 14:45:04;;;;;;;16.23;5.28;;;;;;;-140.66;100.00;55571.53;5138296;27;20031;-72
2023/08/16 14:48:49;;;;;;;8.40;4.40;;;;;;;-140.66;100.00;55571.53;5137332;27;20031;-73
2023/08/16 14:52:33;;;;;;;10.25;4.95;;;;;;;-140.66;100.00;55571.53;5137688;27;20447;-72
2023/08/16 14:56:18;;;;;;;19.17;4.88;;;;;;;-140.66;100.00;55571.53;5145031;27;20034;-72
2023/08/16 15:00:06;;;;;;;9.55;4.80;;;;;;;-140.66;100.00;55571.53;5140262;27;20334;-73
2023/08/16 15:03:50;;;;;;;8.30;5.05;;;;;;;-140.66;100.00;55571.53;5136364;27;20030;-71
2023/08/16 15:07:35;;;;;;;13.23;5.45;;;;;;;-140.66;100.00;55571.53;5137959;27;20023;-72
2023/08/16 15:11:19;;;;;;;8.38;4.93;;;;;;;-140.66;100.00;55571.53;5136848;27;20023;-73
2023/08/16 15:15:05;;;;;;;8.18;5.03;;;;;;;-140.66;100.00;55571.53;5137362;27;20448;-72
2023/08/16 15:18:49;;;;;;;9.85;4.75;;;;;;;-140.66;100.00;55571.53;5136378;27;20111;-72
2023/08/16 15:22:33;;;;;;;9.68;5.22;;;;;;;-140.66;100.00;55571.53;5138078;27;20329;-72
2023/08/16 15:26:17;;;;;;;11.65;4.90;;;;;;;-140.66;100.00;55571.53;5137903;27;20091;-72
2023/08/16 15:30:02;;;;;;;10.80;5.15;;;;;;;-140.66;100.00;55571.53;5137332;27;20071;-72
2023/08/16 15:33:47;;;;;;;15.73;5.68;;;;;;;-140.66;100.00;55571.53;5136807;27;20033;-72
2023/08/16 15:37:31;;;;;;;15.23;7.03;;;;;;;-140.66;100.00;55571.53;5137689;27;20031;-73
2023/08/16 15:41:15;;;;;;;10.50;5.10;;;;;;;-140.66;100.00;55571.53;5137261;27;20349;-72
2023/08/16 15:44:59;;;;;;;10.52;5.50;;;;;;;-140.66;100.00;55571.53;5137402;27;20034;-74
2023/08/16 15:48:44;;;;;;;13.25;5.85;;;;;;;-140.66;100.00;55571.53;5137089;27;20062;-74
2023/08/16 15:52:29;;;;;;;18.63;5.65;;;;;;;-140.66;100.00;55571.53;5136785;27;20384;-73
2023/08/16 15:56:13;;;;;;;13.68;4.90;;;;;;;-140.66;100.00;55571.53;5136940;27;20023;-73
2023/08/16 15:59:58;;;;;;;15.60;5.53;;;;;;;-140.66;100.00;55571.53;5136982;27;20023;-73
2023/08/16 16:03:42;;;;;;;8.70;5.38;;;;;;;-140.66;100.00;55571.53;5136147;27;20039;-73
2023/08/16 16:07:27;;;;;;;11.35;5.95;;;;;;;-140.66;100.00;55571.53;5136057;27;20352;-73
2023/08/16 16:11:12;;;;;;;8.55;5.03;;;;;;;-140.66;100.00;55571.53;5135989;27;20031;-74
2023/08/16 16:15:03;;;;;;;8.10;4.88;;;;;;;-140.66;100.00;55571.53;5135533;27;20023;-73
2023/08/16 16:18:47;;;;;;;7.25;5.18;;;;;;;-140.66;100.00;55571.53;5137234;27;20364;-73
2023/08/16 16:22:31;;;;;;;10.23;4.78;;;;;;;-140.66;100.00;55571.53;5122464;27;20130;-73
2023/08/16 16:26:15;;;;;;;7.50;5.03;;;;;;;-140.66;100.00;55571.53;5135619;27;20027;-73
2023/08/16 16:30:00;;;;;;;11.25;4.80;;;;;;;-140.66;100.00;55571.53;5135763;27;20019;-74
2023/08/16 16:33:44;;;;;;;16.60;5.30;;;;;;;-140.66;100.00;55571.53;5135149;27;20023;-73
2023/08/16 16:37:28;;;;;;;8.32;4.80;;;;;;;-140.66;100.00;55571.53;5135868;27;20027;-71
2023/08/16 16:41:13;;;;;;;8.80;4.60;;;;;;;-140.66;100.00;55571.53;5135372;27;20039;-72
2023/08/16 16:44:57;;;;;;;7.05;4.97;;;;;;;-140.66;100.00;55571.53;5135926;27;20341;-72
2023/08/16 16:48:41;;;;;;;12.00;4.70;;;;;;;-140.66;100.00;55571.53;5136062;27;20157;-71